< < Back
Terminal Aerodrome Forecast


Current Version              Previous Versions:   1  2  3  4  5  6  7  8  9  

Terminal Aerodrome Forecast

877
FTUS42 KFFC 271121
TAFCSG
TAF
KCSG 271121Z 2712/2812 09003KT P6SM FEW070
     FM271400 10007KT P6SM FEW045
     FM271800 11010KT P6SM FEW060
     FM280100 09004KT P6SM FEW080=

Latest METAR

739
SAUS70 KWBC 272000 RRA
MTRCSG
METAR KCSG 271951Z 11009G15KT 070V150 10SM CLR 34/16 A3001 RMK AO2
SLP158 T03390161


USA.gov is the U.S. government's official web portal to all federal, state and local government web resources and services.